Time;durP1;ratioP1;P1;durP2;ratioP2;P2;SDS_P1;SDS_P2;PMS_P1;PMS_P2;Temp;Humidity;BMP_temperature;BMP_pressure;BME280_temperature;BME280_humidity;BME280_pressure;Samples;Min_cycle;Max_cycle;Signal;HPM_P1;HPM_P2
2022/01/07 00:01:24;;;;;;;2.80;1.67;;;18.60;49.40;;;;;;5056594;28;20172;-21
2022/01/07 00:03:51;;;;;;;3.20;1.90;;;18.50;49.40;;;;;;5056317;28;20186;-24
2022/01/07 00:06:18;;;;;;;3.40;2.20;;;18.50;49.50;;;;;;5056837;28;20620;-23
2022/01/07 00:08:44;;;;;;;2.13;1.87;;;18.40;49.50;;;;;;5055509;28;20174;-23
2022/01/07 00:11:10;;;;;;;4.17;2.10;;;18.40;49.50;;;;;;5054828;28;20289;-25
2022/01/07 00:13:36;;;;;;;3.70;2.20;;;18.30;49.60;;;;;;5054205;28;20277;-23
2022/01/07 00:16:01;;;;;;;2.93;1.80;;;18.30;49.50;;;;;;5054245;28;20179;-22
2022/01/07 00:18:27;;;;;;;3.07;1.93;;;18.30;49.60;;;;;;5053278;28;20230;-22
2022/01/07 00:20:53;;;;;;;2.37;1.50;;;18.20;49.50;;;;;;5055084;28;20168;-24
2022/01/07 00:23:20;;;;;;;2.80;1.77;;;18.20;49.70;;;;;;5056029;28;20171;-23
2022/01/07 00:25:46;;;;;;;2.03;1.70;;;18.20;49.60;;;;;;5056404;28;20427;-23
2022/01/07 00:28:12;;;;;;;2.63;1.80;;;18.20;49.80;;;;;;5056135;28;20233;-22
2022/01/07 00:30:38;;;;;;;3.07;2.00;;;18.10;49.80;;;;;;5055966;28;20176;-22
2022/01/07 00:33:06;;;;;;;3.40;1.90;;;18.10;49.70;;;;;;5055802;28;20170;-22
2022/01/07 00:35:32;;;;;;;3.13;1.90;;;18.10;49.80;;;;;;5054774;28;20496;-24
2022/01/07 00:37:58;;;;;;;3.77;1.80;;;18.10;49.80;;;;;;5054123;28;20261;-24
2022/01/07 00:40:25;;;;;;;3.37;1.70;;;18.10;49.90;;;;;;5054550;28;20524;-22
2022/01/07 00:42:51;;;;;;;2.87;1.80;;;18.00;49.80;;;;;;5054018;28;20168;-24
2022/01/07 00:45:22;;;;;;;2.77;1.80;;;18.10;49.70;;;;;;5055651;28;20174;-25
2022/01/07 00:47:48;;;;;;;3.33;1.97;;;18.00;49.90;;;;;;5055817;28;20174;-24
2022/01/07 00:50:15;;;;;;;3.73;2.10;;;18.00;49.90;;;;;;5056279;28;20175;-23
2022/01/07 00:52:41;;;;;;;3.00;1.70;;;18.00;49.80;;;;;;5056080;28;20624;-22
2022/01/07 00:55:08;;;;;;;2.47;1.50;;;18.00;49.80;;;;;;5056356;28;20207;-22
2022/01/07 00:57:35;;;;;;;3.97;2.00;;;18.00;49.70;;;;;;5054982;28;20473;-23
2022/01/07 01:00:01;;;;;;;4.73;2.00;;;17.90;49.50;;;;;;5053785;28;20176;-25
2022/01/07 01:02:26;;;;;;;3.23;1.90;;;17.90;49.60;;;;;;5052981;28;20488;-20
2022/01/07 01:14:58;;;;;;;3.67;1.87;;;17.80;49.60;;;;;;5055182;28;20234;-23
2022/01/07 01:17:24;;;;;;;3.53;1.80;;;17.80;49.60;;;;;;5054885;28;20166;-21
2022/01/07 01:19:50;;;;;;;3.07;1.70;;;17.70;49.50;;;;;;5054534;28;20177;-24
2022/01/07 01:22:16;;;;;;;2.50;1.70;;;17.70;49.70;;;;;;5051937;28;20630;-22
2022/01/07 01:24:41;;;;;;;3.13;1.90;;;17.70;49.70;;;;;;5053576;28;20566;-21
2022/01/07 01:27:07;;;;;;;3.10;1.77;;;17.70;49.50;;;;;;5053514;28;20732;-23
2022/01/07 01:29:34;;;;;;;2.60;1.67;;;17.70;49.50;;;;;;5055283;28;20450;-25
2022/01/07 01:32:00;;;;;;;2.40;1.70;;;17.60;49.40;;;;;;5055277;28;20195;-23
2022/01/07 01:34:26;;;;;;;2.70;1.67;;;17.60;49.40;;;;;;5055233;28;20308;-22
2022/01/07 01:36:52;;;;;;;2.37;1.47;;;17.60;49.40;;;;;;5054524;28;20482;-24
2022/01/07 01:39:17;;;;;;;1.77;1.40;;;17.60;49.60;;;;;;5053838;28;20236;-23
2022/01/07 01:41:44;;;;;;;2.30;1.60;;;17.60;49.60;;;;;;5054218;28;20169;-22
2022/01/07 01:44:11;;;;;;;3.43;1.90;;;17.60;49.40;;;;;;5052962;28;20575;-22
2022/01/07 01:46:36;;;;;;;3.70;1.80;;;17.60;49.50;;;;;;5052520;28;20418;-26
2022/01/07 01:49:03;;;;;;;2.20;1.60;;;17.50;49.40;;;;;;5052697;28;20177;-25
2022/01/07 01:51:28;;;;;;;2.43;1.80;;;17.50;49.40;;;;;;5053797;28;20358;-23
2022/01/07 01:53:55;;;;;;;2.73;1.60;;;17.50;49.40;;;;;;5051718;28;20211;-21
2022/01/07 01:56:20;;;;;;;2.03;1.50;;;17.50;49.40;;;;;;5053767;28;20266;-24
2022/01/07 01:58:46;;;;;;;2.37;1.70;;;17.50;49.40;;;;;;5053082;28;20307;-23
2022/01/07 02:01:12;;;;;;;2.50;1.50;;;17.50;49.50;;;;;;5052613;28;20573;-24
2022/01/07 02:03:38;;;;;;;1.60;1.50;;;17.40;49.40;;;;;;5051471;28;20602;-23
2022/01/07 02:06:03;;;;;;;1.97;1.70;;;17.40;49.30;;;;;;5052927;28;20172;-24
2022/01/07 02:08:30;;;;;;;2.20;1.67;;;17.30;49.30;;;;;;5054498;28;20181;-23
2022/01/07 02:10:58;;;;;;;3.10;1.57;;;17.30;49.40;;;;;;5054105;28;20174;-23
2022/01/07 02:13:24;;;;;;;2.50;1.57;;;17.30;49.50;;;;;;5053907;28;20300;-25
2022/01/07 02:15:50;;;;;;;2.40;1.63;;;17.30;49.50;;;;;;5053432;28;20275;-24
2022/01/07 02:18:19;;;;;;;2.60;1.63;;;17.30;49.50;;;;;;5052925;28;20170;-22
2022/01/07 02:20:45;;;;;;;2.50;1.60;;;17.30;49.50;;;;;;5053747;28;20446;-20
2022/01/07 02:23:11;;;;;;;2.90;1.50;;;17.20;49.50;;;;;;5052327;28;20170;-23
2022/01/07 02:25:37;;;;;;;2.77;1.50;;;17.20;49.60;;;;;;5053776;28;20166;-21
2022/01/07 02:28:04;;;;;;;2.97;1.57;;;17.20;49.50;;;;;;5053500;28;20170;-23
2022/01/07 02:30:30;;;;;;;2.00;1.40;;;17.20;49.50;;;;;;5053855;28;20167;-22
2022/01/07 02:32:57;;;;;;;2.00;1.53;;;17.10;49.60;;;;;;5054024;28;20342;-24
2022/01/07 02:35:26;;;;;;;2.83;1.40;;;17.10;49.50;;;;;;5053981;28;20181;-24
2022/01/07 02:37:52;;;;;;;2.93;1.73;;;17.10;49.70;;;;;;5054770;28;20175;-22
2022/01/07 02:40:18;;;;;;;1.80;1.30;;;17.00;49.60;;;;;;5054047;28;20182;-22
2022/01/07 02:42:45;;;;;;;2.10;1.30;;;17.00;49.80;;;;;;5053804;28;20173;-22
2022/01/07 02:45:13;;;;;;;1.90;1.63;;;17.00;49.80;;;;;;5053640;28;20184;-22
2022/01/07 02:50:12;;;;;;;2.13;1.43;;;16.90;49.90;;;;;;5052317;28;20179;-24
2022/01/07 02:52:38;;;;;;;2.73;1.57;;;16.90;49.90;;;;;;5052055;28;20179;-22
2022/01/07 02:55:05;;;;;;;2.47;1.50;;;16.90;50.00;;;;;;5053171;28;20484;-23
2022/01/07 02:57:31;;;;;;;2.27;1.67;;;16.80;50.00;;;;;;5053700;28;20186;-24
2022/01/07 02:59:56;;;;;;;1.90;1.40;;;16.80;50.00;;;;;;5054171;28;20166;-26
2022/01/07 03:02:22;;;;;;;1.67;1.23;;;16.80;50.10;;;;;;5052617;28;20267;-22
2022/01/07 03:04:48;;;;;;;2.10;1.50;;;16.80;50.10;;;;;;5053817;28;20625;-22
2022/01/07 03:07:14;;;;;;;2.00;1.47;;;16.70;50.10;;;;;;5052545;28;20168;-20
2022/01/07 03:09:39;;;;;;;2.13;1.37;;;16.70;50.10;;;;;;5051136;28;20180;-20
2022/01/07 03:12:06;;;;;;;2.17;1.60;;;16.70;50.20;;;;;;5052070;28;20404;-25
2022/01/07 03:14:31;;;;;;;3.20;1.70;;;16.70;50.20;;;;;;5051366;28;20269;-20
2022/01/07 03:16:57;;;;;;;1.60;1.50;;;16.60;50.20;;;;;;5056636;28;20206;-21
2022/01/07 03:19:23;;;;;;;1.77;1.20;;;16.60;50.20;;;;;;5057411;28;20267;-23
2022/01/07 03:21:49;;;;;;;3.00;1.60;;;16.60;50.30;;;;;;5057156;28;20347;-21
2022/01/07 03:24:14;;;;;;;2.67;1.50;;;16.50;50.30;;;;;;5057762;28;20176;-22
2022/01/07 03:26:40;;;;;;;3.33;1.60;;;16.50;50.40;;;;;;5057455;28;20165;-21
2022/01/07 03:29:05;;;;;;;2.57;1.40;;;16.50;50.50;;;;;;5056790;28;20178;-23
2022/01/07 03:31:31;;;;;;;2.03;1.37;;;16.50;50.50;;;;;;5056975;28;20783;-22
2022/01/07 03:33:57;;;;;;;2.80;1.30;;;16.50;50.50;;;;;;5055053;28;20205;-22
2022/01/07 03:36:23;;;;;;;1.93;1.37;;;16.40;50.50;;;;;;5056156;28;20531;-22
2022/01/07 03:38:48;;;;;;;1.73;1.40;;;16.40;50.60;;;;;;5056384;28;20180;-21
2022/01/07 03:41:14;;;;;;;2.13;1.50;;;16.30;50.60;;;;;;5057159;28;20259;-22
2022/01/07 03:43:40;;;;;;;1.60;1.20;;;16.30;50.60;;;;;;5056403;28;20176;-23
2022/01/07 03:46:06;;;;;;;2.10;1.20;;;16.30;50.70;;;;;;5057072;28;20176;-24
2022/01/07 03:48:31;;;;;;;2.27;1.50;;;16.20;50.70;;;;;;5057395;28;20196;-21
2022/01/07 03:50:57;;;;;;;2.03;1.40;;;16.20;50.80;;;;;;5055718;28;20180;-26
2022/01/07 03:53:25;;;;;;;1.90;1.30;;;16.10;50.70;;;;;;5055986;28;20282;-23
2022/01/07 03:55:52;;;;;;;2.10;1.47;;;16.10;50.70;;;;;;5054121;28;20271;-23
2022/01/07 03:58:18;;;;;;;1.47;1.20;;;16.00;50.70;;;;;;5055918;28;20168;-23
2022/01/07 04:00:44;;;;;;;2.40;1.47;;;16.00;50.70;;;;;;5056464;28;20183;-24
2022/01/07 04:03:12;;;;;;;2.60;1.57;;;16.00;50.80;;;;;;5056947;28;20182;-20
2022/01/07 04:05:38;;;;;;;1.73;1.40;;;15.90;50.80;;;;;;5057157;28;20183;-21
2022/01/07 04:08:06;;;;;;;3.00;1.63;;;15.90;50.90;;;;;;5058878;28;20533;-23
2022/01/07 04:10:32;;;;;;;2.00;1.50;;;15.90;50.90;;;;;;5055794;28;20180;-23
2022/01/07 04:12:57;;;;;;;2.23;1.57;;;17.80;49.30;;;;;;5056789;28;20259;-22
2022/01/07 04:15:23;;;;;;;2.20;1.30;;;19.00;46.60;;;;;;5056061;28;20475;-23
2022/01/07 04:17:51;;;;;;;1.53;1.20;;;19.30;45.30;;;;;;5055062;28;20541;-20
2022/01/07 04:20:20;;;;;;;1.83;1.50;;;19.50;45.10;;;;;;5055534;28;20174;-26
2022/01/07 04:22:46;;;;;;;2.10;1.37;;;19.60;44.80;;;;;;5055483;28;20179;-20
2022/01/07 04:25:17;;;;;;;1.77;1.20;;;19.90;44.60;;;;;;5057120;28;20191;-24
2022/01/07 04:27:53;;;;;;;1.33;1.23;;;20.10;44.10;;;;;;5056721;28;20259;-23
2022/01/07 04:30:21;;;;;;;2.50;1.57;;;20.40;43.70;;;;;;5055197;28;20176;-23
2022/01/07 04:32:48;;;;;;;1.30;1.13;;;20.80;43.30;;;;;;5056460;28;20416;-23
2022/01/07 04:35:15;;;;;;;1.77;1.30;;;21.10;43.00;;;;;;5056022;28;20287;-25
2022/01/07 04:37:41;;;;;;;1.23;1.00;;;21.40;42.50;;;;;;5055720;28;20552;-24
2022/01/07 04:40:09;;;;;;;2.13;1.30;;;21.50;42.40;;;;;;5053288;28;20271;-25
2022/01/07 04:42:35;;;;;;;3.03;1.27;;;21.50;42.30;;;;;;5054842;28;20212;-24
2022/01/07 04:45:01;;;;;;;1.20;1.10;;;21.60;42.10;;;;;;5054385;28;20243;-25
2022/01/07 04:47:27;;;;;;;1.97;1.23;;;21.90;41.90;;;;;;5056250;28;20188;-23
2022/01/07 04:49:52;;;;;;;1.30;1.20;;;22.10;41.80;;;;;;5056424;28;20212;-23
2022/01/07 04:52:20;;;;;;;1.80;1.23;;;22.20;41.50;;;;;;5055622;28;20183;-25
2022/01/07 04:54:46;;;;;;;1.90;1.10;;;22.30;41.50;;;;;;5057230;28;20204;-22
2022/01/07 04:57:12;;;;;;;2.40;1.40;;;22.30;41.40;;;;;;5056116;28;20466;-24
2022/01/07 04:59:38;;;;;;;1.27;1.03;;;22.40;41.40;;;;;;5056289;28;20258;-23
2022/01/07 05:02:04;;;;;;;1.97;1.30;;;22.80;41.20;;;;;;5053881;28;20179;-24
2022/01/07 05:04:29;;;;;;;1.90;1.30;;;23.00;40.90;;;;;;5053973;28;20568;-23
2022/01/07 05:06:55;;;;;;;1.37;1.20;;;22.80;40.70;;;;;;5055259;28;20211;-25
2022/01/07 05:09:21;;;;;;;1.97;1.30;;;22.60;40.70;;;;;;5056223;28;20180;-23
2022/01/07 05:11:52;;;;;;;2.40;1.10;;;22.70;41.10;;;;;;5055501;28;20183;-25
2022/01/07 05:14:18;;;;;;;1.60;1.10;;;22.80;41.00;;;;;;5055869;28;20214;-23
2022/01/07 05:16:44;;;;;;;1.73;1.30;;;22.60;40.80;;;;;;5055853;28;20171;-24
2022/01/07 05:19:11;;;;;;;1.97;1.30;;;22.50;41.20;;;;;;5055734;28;20274;-22
2022/01/07 05:21:38;;;;;;;2.40;1.20;;;22.40;41.20;;;;;;5055973;28;20357;-24
2022/01/07 05:24:04;;;;;;;1.87;1.10;;;22.10;41.30;;;;;;5053697;28;20186;-24
2022/01/07 05:26:29;;;;;;;1.20;1.10;;;21.80;41.50;;;;;;5053678;28;20174;-24
2022/01/07 05:28:56;;;;;;;2.63;1.40;;;21.50;41.80;;;;;;5053698;28;20189;-23
2022/01/07 05:31:23;;;;;;;1.83;1.17;;;21.30;42.20;;;;;;5054111;28;20466;-22
2022/01/07 05:33:52;;;;;;;1.80;1.23;;;21.20;42.40;;;;;;5054470;28;20213;-23
2022/01/07 05:36:19;;;;;;;1.63;1.20;;;20.90;42.50;;;;;;5053453;28;20178;-24
2022/01/07 05:38:45;;;;;;;2.40;1.23;;;20.70;42.60;;;;;;5052329;28;20175;-26
2022/01/07 05:41:12;;;;;;;2.67;1.10;;;20.50;43.00;;;;;;5053773;28;20382;-24
2022/01/07 05:43:38;;;;;;;1.63;1.23;;;20.20;43.30;;;;;;5053300;28;20284;-24
2022/01/07 05:46:04;;;;;;;2.33;1.20;;;20.00;43.60;;;;;;5053443;28;20267;-23
2022/01/07 05:48:30;;;;;;;1.70;1.20;;;19.90;43.80;;;;;;5054226;28;20419;-23
2022/01/07 05:50:56;;;;;;;2.50;1.30;;;20.00;43.80;;;;;;5050634;28;20183;-24
2022/01/07 05:53:21;;;;;;;2.13;1.23;;;20.60;43.50;;;;;;5052204;28;20254;-23
2022/01/07 05:55:47;;;;;;;1.47;1.03;;;21.60;42.70;;;;;;5053725;28;20551;-24
2022/01/07 05:58:13;;;;;;;2.57;1.20;;;22.50;41.70;;;;;;5052077;28;20553;-24
2022/01/07 06:00:39;;;;;;;1.87;1.10;;;23.20;40.80;;;;;;5052512;28;20174;-23
2022/01/07 06:03:04;;;;;;;1.53;1.30;;;23.20;40.50;;;;;;5053020;28;20399;-23
2022/01/07 06:05:30;;;;;;;1.27;1.10;;;23.40;40.20;;;;;;5051583;28;20266;-25
2022/01/07 06:07:55;;;;;;;1.30;0.90;;;23.10;40.20;;;;;;5052618;28;20185;-22
2022/01/07 06:10:21;;;;;;;1.13;1.00;;;22.90;40.30;;;;;;5050514;28;20280;-24
2022/01/07 06:12:47;;;;;;;1.70;1.20;;;22.90;40.60;;;;;;5050408;28;20175;-25
2022/01/07 06:15:12;;;;;;;1.60;1.03;;;22.80;40.70;;;;;;5049863;28;20584;-22
2022/01/07 06:17:38;;;;;;;1.10;1.00;;;23.00;40.60;;;;;;5050221;28;20184;-24
2022/01/07 06:20:06;;;;;;;1.60;1.10;;;23.00;40.50;;;;;;5053139;28;20199;-24
2022/01/07 06:22:31;;;;;;;1.53;1.10;;;23.10;40.30;;;;;;5050263;28;20253;-26
2022/01/07 06:24:57;;;;;;;1.40;1.00;;;23.00;40.50;;;;;;5052642;28;20488;-24
2022/01/07 06:27:23;;;;;;;2.23;1.20;;;23.00;40.60;;;;;;5051257;28;20200;-25
2022/01/07 06:29:49;;;;;;;2.30;1.00;;;23.20;40.40;;;;;;5052273;28;20453;-26
2022/01/07 06:32:14;;;;;;;1.20;0.90;;;23.10;40.40;;;;;;5048814;28;20437;-23
2022/01/07 06:34:40;;;;;;;1.37;1.00;;;23.00;40.50;;;;;;5050045;28;20215;-23
2022/01/07 06:37:06;;;;;;;1.10;1.00;;;22.80;40.70;;;;;;5049863;28;20250;-25
2022/01/07 06:39:32;;;;;;;1.30;1.10;;;22.70;40.80;;;;;;5049677;28;20243;-23
2022/01/07 06:42:00;;;;;;;1.40;1.07;;;22.30;40.80;;;;;;5050377;28;20175;-23
2022/01/07 06:44:26;;;;;;;1.60;1.20;;;22.10;41.20;;;;;;5051867;28;20553;-23
2022/01/07 06:46:52;;;;;;;1.67;1.03;;;22.10;41.40;;;;;;5051028;28;20271;-25
2022/01/07 06:49:18;;;;;;;2.10;1.10;;;22.00;41.30;;;;;;5051038;28;20221;-22
2022/01/07 06:51:44;;;;;;;1.10;1.00;;;21.90;41.50;;;;;;5055522;28;20180;-22
2022/01/07 06:54:11;;;;;;;1.30;0.90;;;21.50;41.80;;;;;;5054168;28;20219;-23
2022/01/07 06:56:43;;;;;;;1.10;1.00;;;21.80;41.90;;;;;;5052837;28;20266;-27
2022/01/07 06:59:12;;;;;;;2.07;1.07;;;21.80;41.70;;;;;;5052879;28;20244;-23
2022/01/07 07:01:39;;;;;;;1.43;1.10;;;21.80;41.70;;;;;;5052603;28;20172;-26
2022/01/07 07:04:05;;;;;;;0.90;0.90;;;22.50;41.40;;;;;;5054270;28;20187;-23
2022/01/07 07:06:30;;;;;;;1.70;1.13;;;23.00;40.90;;;;;;5055505;28;20170;-23
2022/01/07 07:08:56;;;;;;;1.50;1.00;;;23.30;40.40;;;;;;5055791;28;20176;-23
2022/01/07 07:11:22;;;;;;;3.00;1.00;;;23.30;40.30;;;;;;5055922;28;20180;-23
2022/01/07 07:13:48;;;;;;;1.63;1.27;;;23.60;40.10;;;;;;5055002;28;20289;-23
2022/01/07 07:16:14;;;;;;;1.33;1.00;;;23.70;39.90;;;;;;5052590;28;20183;-24
2022/01/07 07:18:40;;;;;;;1.27;1.17;;;23.60;40.10;;;;;;5053869;28;20574;-24
2022/01/07 07:21:06;;;;;;;1.70;1.03;;;23.50;40.10;;;;;;5054601;28;20558;-26
2022/01/07 07:23:31;;;;;;;1.10;0.97;;;23.40;40.30;;;;;;5052292;28;20444;-22
2022/01/07 07:25:57;;;;;;;1.57;1.00;;;23.40;40.40;;;;;;5054276;28;20215;-24
2022/01/07 07:28:23;;;;;;;1.30;1.17;;;23.50;40.40;;;;;;5053804;28;20535;-23
2022/01/07 07:30:50;;;;;;;3.47;1.00;;;23.60;40.40;;;;;;5052444;28;20172;-24
2022/01/07 07:38:13;;;;;;;2.43;1.10;;;23.20;40.80;;;;;;5055111;28;20179;-23
2022/01/07 07:40:39;;;;;;;2.00;1.10;;;23.50;41.30;;;;;;5050413;28;20345;-23
2022/01/07 07:43:04;;;;;;;2.87;1.20;;;23.40;41.20;;;;;;5050369;28;20176;-24
2022/01/07 07:45:30;;;;;;;1.60;1.00;;;23.30;41.10;;;;;;5051989;28;20199;-22
2022/01/07 07:47:56;;;;;;;1.97;1.20;;;23.10;41.30;;;;;;5053776;28;20160;-24
2022/01/07 07:50:22;;;;;;;2.20;1.23;;;22.90;41.40;;;;;;5052804;28;20240;-24
2022/01/07 07:52:47;;;;;;;5.20;1.10;;;22.70;41.60;;;;;;5053141;28;20428;-23
2022/01/07 07:55:13;;;;;;;1.67;1.10;;;22.80;41.60;;;;;;5052249;28;20200;-24
2022/01/07 07:57:39;;;;;;;3.07;1.10;;;22.70;41.60;;;;;;5052821;28;20192;-24
2022/01/07 08:00:06;;;;;;;3.33;1.30;;;22.40;41.70;;;;;;5052351;28;20179;-23
2022/01/07 08:02:31;;;;;;;1.37;1.00;;;22.20;41.90;;;;;;5050068;28;20178;-25
2022/01/07 08:04:58;;;;;;;2.60;1.10;;;22.00;42.20;;;;;;5049269;28;20275;-24
2022/01/07 08:07:23;;;;;;;1.70;1.20;;;22.10;42.20;;;;;;5054267;28;20199;-24
2022/01/07 08:09:51;;;;;;;2.57;1.00;;;21.80;42.20;;;;;;5056728;28;20252;-20
2022/01/07 08:12:20;;;;;;;2.27;1.10;;;21.60;42.50;;;;;;5057508;28;20180;-24
2022/01/07 08:17:30;;;;;;;1.60;1.13;;;21.70;42.30;;;;;;5057595;28;20228;-23
2022/01/07 08:19:56;;;;;;;1.93;1.53;;;21.60;42.40;;;;;;5056893;28;20179;-23
2022/01/07 08:22:22;;;;;;;1.93;1.20;;;22.10;42.10;;;;;;5050283;28;20403;-22
2022/01/07 08:24:48;;;;;;;1.80;1.00;;;22.80;41.60;;;;;;5056980;28;20171;-24
2022/01/07 08:27:13;;;;;;;3.20;1.13;;;23.20;40.80;;;;;;5056168;28;20188;-24
2022/01/07 08:29:41;;;;;;;2.83;1.10;;;23.30;40.60;;;;;;5055391;28;20578;-24
2022/01/07 08:34:54;;;;;;;1.37;1.13;;;23.40;40.50;;;;;;5051883;28;20250;-25
2022/01/07 08:37:28;;;;;;;1.23;0.90;;;23.40;40.50;;;;;;5051087;28;20172;-25
2022/01/07 08:39:55;;;;;;;1.87;1.10;;;23.40;40.50;;;;;;5052769;28;20235;-24
2022/01/07 08:42:23;;;;;;;1.30;1.17;;;23.30;40.60;;;;;;5050228;28;20161;-26
2022/01/07 08:44:51;;;;;;;2.17;1.00;;;23.20;40.80;;;;;;5049656;28;20169;-25
2022/01/07 08:47:17;;;;;;;2.90;1.23;;;22.80;41.00;;;;;;5048808;28;20172;-22
2022/01/07 08:49:43;;;;;;;1.73;1.10;;;22.60;41.30;;;;;;5049148;28;20186;-24
2022/01/07 08:52:08;;;;;;;1.97;1.23;;;22.30;41.50;;;;;;5050172;28;20175;-24
2022/01/07 08:54:34;;;;;;;3.13;1.40;;;21.90;41.80;;;;;;5047760;28;20200;-23
2022/01/07 08:57:00;;;;;;;1.60;1.20;;;21.60;42.30;;;;;;5049223;28;20183;-24
2022/01/07 08:59:26;;;;;;;3.20;1.10;;;21.50;42.50;;;;;;5048063;28;20168;-23
2022/01/07 09:01:51;;;;;;;1.63;1.20;;;21.50;42.60;;;;;;5048431;28;20183;-24
2022/01/07 09:04:17;;;;;;;1.07;0.90;;;21.80;42.40;;;;;;5049261;28;20172;-23
2022/01/07 09:06:43;;;;;;;1.17;1.07;;;22.10;42.30;;;;;;5051124;28;20178;-23
2022/01/07 09:09:08;;;;;;;2.13;1.10;;;22.10;42.10;;;;;;5049493;28;20183;-22
2022/01/07 09:11:34;;;;;;;0.97;0.90;;;22.40;42.00;;;;;;5047939;28;20182;-29
2022/01/07 09:14:00;;;;;;;2.40;1.33;;;22.70;41.60;;;;;;5048804;28;20196;-22
2022/01/07 09:16:26;;;;;;;4.43;1.20;;;22.90;41.30;;;;;;5050147;28;20171;-23
2022/01/07 09:18:51;;;;;;;5.67;1.30;;;23.20;41.00;;;;;;5049601;28;20468;-23
2022/01/07 09:21:20;;;;;;;2.73;1.20;;;23.40;41.00;;;;;;5049780;28;20176;-23
2022/01/07 09:23:47;;;;;;;2.30;1.10;;;23.60;40.90;;;;;;5048686;28;20180;-24
2022/01/07 09:26:13;;;;;;;1.80;1.00;;;23.70;40.80;;;;;;5049911;28;20182;-26
2022/01/07 09:28:39;;;;;;;6.10;1.20;;;23.70;40.90;;;;;;5050718;28;20168;-23
2022/01/07 09:31:05;;;;;;;3.13;1.33;;;23.60;41.10;;;;;;5050989;28;20168;-23
2022/01/07 09:33:31;;;;;;;3.10;1.20;;;23.50;41.30;;;;;;5048329;28;20458;-24
2022/01/07 09:35:57;;;;;;;2.07;1.17;;;23.30;41.40;;;;;;5048256;28;20330;-24
2022/01/07 09:38:22;;;;;;;1.80;1.20;;;23.40;41.50;;;;;;5048758;28;20263;-23
2022/01/07 09:40:51;;;;;;;2.30;1.20;;;23.60;41.40;;;;;;5047834;28;20784;-22
2022/01/07 09:43:17;;;;;;;2.13;1.30;;;23.60;41.40;;;;;;5048191;28;20485;-21
2022/01/07 09:45:43;;;;;;;6.10;1.40;;;23.60;41.20;;;;;;5049555;28;20176;-22
2022/01/07 09:48:09;;;;;;;2.43;1.27;;;23.50;41.30;;;;;;5047915;28;20172;-24
2022/01/07 09:50:36;;;;;;;4.63;1.30;;;23.40;41.40;;;;;;5049914;28;20203;-23
2022/01/07 09:53:08;;;;;;;2.20;1.33;;;23.30;41.40;;;;;;5047277;28;20228;-24
2022/01/07 09:55:34;;;;;;;2.07;1.30;;;23.30;41.50;;;;;;5047351;28;20212;-21
2022/01/07 09:58:01;;;;;;;5.50;1.40;;;23.10;41.60;;;;;;5046918;28;20327;-24
2022/01/07 10:00:37;;;;;;;3.03;1.20;;;23.10;41.60;;;;;;5045342;28;20172;-23
2022/01/07 10:03:11;;;;;;;1.80;1.40;;;22.90;41.70;;;;;;5046370;28;20262;-24
2022/01/07 10:05:45;;;;;;;2.67;1.30;;;22.60;42.00;;;;;;5049154;28;20257;-23
2022/01/07 10:08:24;;;;;;;2.83;1.27;;;22.50;42.20;;;;;;5047201;28;20663;-25
2022/01/07 10:11:19;;;;;;;2.53;1.20;;;22.50;42.30;;;;;;5047303;28;20170;-23
2022/01/07 10:13:50;;;;;;;2.07;1.20;;;22.40;42.40;;;;;;5048375;28;20191;-24
2022/01/07 10:16:23;;;;;;;2.43;1.40;;;22.30;42.60;;;;;;5048092;28;20286;-23
2022/01/07 10:18:49;;;;;;;2.80;1.43;;;22.20;42.50;;;;;;5045826;28;20448;-25
2022/01/07 10:21:16;;;;;;;4.03;1.40;;;22.30;42.60;;;;;;5045681;28;20391;-25
2022/01/07 10:23:44;;;;;;;1.77;1.37;;;22.30;42.40;;;;;;5044474;28;20274;-23
2022/01/07 10:26:21;;;;;;;5.33;1.70;;;22.50;42.30;;;;;;5045665;28;20199;-23
2022/01/07 10:28:49;;;;;;;2.33;1.60;;;22.70;42.00;;;;;;5047472;28;20185;-25
2022/01/07 10:31:23;;;;;;;2.70;1.73;;;23.00;41.80;;;;;;5047725;28;20164;-24
2022/01/07 10:33:49;;;;;;;2.13;1.40;;;23.20;41.70;;;;;;5048488;28;20470;-24
2022/01/07 10:36:19;;;;;;;1.83;1.33;;;23.40;41.30;;;;;;5048876;28;20498;-23
2022/01/07 10:39:01;;;;;;;2.30;1.60;;;23.70;41.10;;;;;;5046369;28;20175;-23
2022/01/07 10:41:27;;;;;;;3.57;1.70;;;23.90;40.80;;;;;;5045546;28;20275;-23
2022/01/07 10:43:53;;;;;;;4.50;1.63;;;23.90;40.80;;;;;;5045953;28;20584;-24
2022/01/07 10:46:24;;;;;;;4.07;1.70;;;23.80;41.10;;;;;;5046435;28;20403;-24
2022/01/07 10:48:58;;;;;;;2.73;1.90;;;23.90;40.70;;;;;;5046614;28;20566;-21
2022/01/07 10:51:29;;;;;;;4.67;1.70;;;23.80;40.70;;;;;;5050123;28;20564;-23
2022/01/07 10:54:00;;;;;;;2.90;1.63;;;23.80;40.70;;;;;;5047558;28;20324;-24
2022/01/07 10:56:33;;;;;;;4.10;1.80;;;23.90;40.70;;;;;;5047446;28;20176;-23
2022/01/07 10:59:05;;;;;;;2.90;1.70;;;23.90;40.70;;;;;;5049645;28;20471;-25
2022/01/07 11:01:33;;;;;;;2.03;1.50;;;23.80;40.70;;;;;;5045818;28;20203;-23
2022/01/07 11:04:01;;;;;;;3.70;1.80;;;23.60;40.90;;;;;;5045671;28;20210;-23
2022/01/07 11:06:28;;;;;;;2.73;1.70;;;23.50;41.00;;;;;;5046332;28;20554;-23
2022/01/07 11:08:55;;;;;;;4.27;1.53;;;23.50;41.00;;;;;;5047203;28;20426;-24
2022/01/07 11:11:23;;;;;;;3.30;1.60;;;23.40;41.10;;;;;;5046292;28;20181;-23
2022/01/07 11:13:49;;;;;;;3.20;1.67;;;23.40;41.10;;;;;;5049113;28;20214;-23
2022/01/07 11:16:16;;;;;;;2.73;1.50;;;23.40;41.10;;;;;;5047452;28;20176;-22
2022/01/07 11:18:46;;;;;;;2.97;1.67;;;23.30;41.20;;;;;;5047917;28;20276;-26
2022/01/07 11:21:12;;;;;;;3.00;1.67;;;23.20;41.30;;;;;;5046295;28;20699;-21
2022/01/07 11:23:39;;;;;;;3.07;1.77;;;23.20;41.40;;;;;;5047779;28;20215;-24
2022/01/07 11:26:07;;;;;;;1.77;1.43;;;23.20;41.40;;;;;;5048082;28;20180;-24
2022/01/07 11:28:34;;;;;;;2.53;1.60;;;23.00;41.40;;;;;;5046186;28;20333;-26
2022/01/07 11:31:04;;;;;;;2.93;1.70;;;23.10;41.40;;;;;;5045408;28;20191;-24
2022/01/07 11:33:30;;;;;;;2.20;1.60;;;23.10;41.50;;;;;;5046232;28;20190;-23
2022/01/07 11:35:56;;;;;;;2.50;1.60;;;23.00;41.50;;;;;;5048018;28;20277;-24
2022/01/07 11:38:34;;;;;;;3.57;1.40;;;23.00;42.00;;;;;;5051609;28;20200;-26
2022/01/07 11:41:01;;;;;;;2.03;1.40;;;23.10;41.60;;;;;;5048879;28;20172;-21
2022/01/07 11:43:40;;;;;;;3.20;1.53;;;23.20;41.50;;;;;;5049210;28;20176;-23
2022/01/07 11:46:31;;;;;;;2.50;1.60;;;23.30;41.50;;;;;;5076771;28;20179;-23
2022/01/07 11:48:59;;;;;;;2.90;1.60;;;23.50;41.40;;;;;;5077346;28;20244;-26
2022/01/07 11:51:36;;;;;;;3.40;1.73;;;23.60;41.30;;;;;;5072081;28;20167;-23
2022/01/07 11:54:04;;;;;;;3.40;1.87;;;23.80;41.20;;;;;;5068753;28;20214;-23
2022/01/07 11:56:31;;;;;;;4.80;1.70;;;23.70;41.10;;;;;;5069617;28;20236;-24
2022/01/07 11:58:58;;;;;;;4.63;1.90;;;23.80;41.50;;;;;;5072118;28;20180;-24
2022/01/07 12:01:24;;;;;;;3.37;1.70;;;23.80;41.20;;;;;;5070683;28;20168;-26
2022/01/07 12:03:50;;;;;;;4.07;1.60;;;23.70;41.20;;;;;;5070173;28;20185;-23
2022/01/07 12:06:36;;;;;;;5.53;1.97;;;23.80;41.30;;;;;;5069594;28;20626;-23
2022/01/07 12:09:13;;;;;;;2.20;1.43;;;23.60;41.30;;;;;;5069611;28;20541;-23
2022/01/07 12:12:10;;;;;;;2.90;1.70;;;23.30;41.60;;;;;;5067634;28;20182;-23
2022/01/07 12:14:40;;;;;;;3.47;1.83;;;23.10;42.00;;;;;;5068396;28;20540;-23
2022/01/07 12:17:13;;;;;;;4.33;1.90;;;22.80;42.20;;;;;;5067432;28;20636;-21
2022/01/07 12:19:49;;;;;;;4.40;1.50;;;22.50;42.60;;;;;;5066959;28;20557;-22
2022/01/07 12:22:16;;;;;;;3.03;1.70;;;22.20;42.90;;;;;;5069201;28;20663;-24
2022/01/07 12:24:43;;;;;;;3.30;1.70;;;21.90;43.30;;;;;;5069770;28;20235;-24
2022/01/07 12:27:16;;;;;;;2.50;1.67;;;21.80;43.50;;;;;;5070722;28;20182;-22
2022/01/07 12:29:44;;;;;;;3.00;1.60;;;22.00;43.40;;;;;;5070041;28;20176;-24
2022/01/07 12:32:12;;;;;;;2.00;1.63;;;22.70;42.90;;;;;;5069340;28;20194;-21
2022/01/07 12:34:43;;;;;;;3.30;1.60;;;23.20;42.30;;;;;;5068323;28;20294;-21
2022/01/07 12:37:14;;;;;;;3.67;1.60;;;23.50;42.10;;;;;;5068475;28;20168;-25
2022/01/07 12:39:43;;;;;;;3.97;1.87;;;23.90;41.70;;;;;;5067946;28;20168;-22
2022/01/07 12:42:10;;;;;;;3.73;1.70;;;23.90;41.50;;;;;;5069692;28;20163;-24
2022/01/07 12:44:37;;;;;;;3.30;1.60;;;23.80;41.60;;;;;;5070871;28;20178;-23
2022/01/07 12:47:04;;;;;;;3.13;1.60;;;23.70;41.80;;;;;;5070595;28;20175;-24
2022/01/07 12:49:37;;;;;;;3.37;1.50;;;23.60;42.00;;;;;;5068739;28;20342;-23
2022/01/07 12:52:08;;;;;;;3.20;1.63;;;23.70;41.90;;;;;;5070674;28;20440;-23
2022/01/07 12:54:35;;;;;;;2.70;1.60;;;23.70;41.90;;;;;;5070043;28;20203;-23
2022/01/07 12:57:02;;;;;;;3.90;1.83;;;23.50;42.10;;;;;;5070326;28;20177;-24
2022/01/07 12:59:29;;;;;;;3.30;1.53;;;23.40;42.30;;;;;;5069122;28;20274;-22
2022/01/07 13:01:55;;;;;;;2.70;1.50;;;23.50;42.30;;;;;;5072153;28;20176;-23
2022/01/07 13:04:23;;;;;;;1.70;1.40;;;23.50;42.40;;;;;;5076907;28;20191;-22
2022/01/07 13:06:56;;;;;;;2.37;1.50;;;23.40;42.30;;;;;;5075464;28;20187;-23
2022/01/07 13:09:25;;;;;;;2.87;1.47;;;23.40;42.50;;;;;;5070566;28;20195;-25
2022/01/07 13:11:53;;;;;;;3.30;1.70;;;23.10;42.60;;;;;;5068606;28;20570;-23